createdAt,value
2018-10-11T00:01:31.588Z,25.27
2018-10-11T00:03:59.631Z,30.17
2018-10-11T00:06:28.017Z,31.20
2018-10-11T00:08:56.261Z,31.87
2018-10-11T00:11:24.246Z,31.03
2018-10-11T00:13:52.581Z,32.13
2018-10-11T00:16:21.087Z,34.23
2018-10-11T00:18:49.139Z,33.53
2018-10-11T00:21:17.673Z,34.07
2018-10-11T00:23:45.931Z,37.43
2018-10-11T00:26:14.374Z,42.77
2018-10-11T00:28:42.639Z,38.67
2018-10-11T00:31:11.158Z,39.37
2018-10-11T00:33:39.397Z,30.93
2018-10-11T00:36:07.638Z,33.90
2018-10-11T00:38:36.144Z,32.63
2018-10-11T00:41:04.474Z,27.50
2018-10-11T00:43:32.691Z,34.87
2018-10-11T00:46:00.989Z,30.53
2018-10-11T00:48:29.437Z,33.00
2018-10-11T00:50:57.288Z,30.03
2018-10-11T00:53:25.492Z,30.57
2018-10-11T00:55:53.352Z,32.40
2018-10-11T00:58:21.137Z,29.50
2018-10-11T01:00:49.449Z,33.53
2018-10-11T01:03:17.438Z,29.50
2018-10-11T01:05:45.820Z,32.70
2018-10-11T01:08:14.083Z,24.77
2018-10-11T01:10:42.087Z,28.77
2018-10-11T01:13:10.623Z,36.53
2018-10-11T01:15:38.946Z,36.60
2018-10-11T01:18:07.311Z,33.50
2018-10-11T01:20:35.632Z,29.40
2018-10-11T01:23:03.962Z,30.97
2018-10-11T01:25:32.224Z,29.27
2018-10-11T01:28:00.915Z,32.50
2018-10-11T01:30:29.139Z,30.50
2018-10-11T01:32:57.521Z,32.63
2018-10-11T01:35:25.950Z,31.30
2018-10-11T01:37:54.474Z,43.57
2018-10-11T01:40:22.851Z,36.47
2018-10-11T01:43:06.140Z,31.90
2018-10-11T01:45:34.820Z,30.83
2018-10-11T01:48:02.999Z,37.90
2018-10-11T01:50:31.383Z,38.63
2018-10-11T01:52:59.590Z,44.00
2018-10-11T01:55:28.646Z,36.23
2018-10-11T01:57:58.070Z,46.43
2018-10-11T02:00:26.444Z,45.70
2018-10-11T02:02:56.626Z,44.97
2018-10-11T02:05:25.658Z,48.90
2018-10-11T02:07:54.326Z,52.63
2018-10-11T02:10:22.591Z,53.57
2018-10-11T02:12:51.118Z,59.93
2018-10-11T02:15:19.409Z,58.00
2018-10-11T02:17:47.663Z,58.80
2018-10-11T02:20:16.006Z,57.00
2018-10-11T02:22:44.419Z,47.83
2018-10-11T02:25:12.887Z,47.43
2018-10-11T02:27:41.490Z,37.70
2018-10-11T02:30:10.659Z,38.43
2018-10-11T02:32:38.433Z,43.17
2018-10-11T02:35:06.892Z,41.43
2018-10-11T02:37:35.116Z,35.73
2018-10-11T02:40:03.647Z,44.60
2018-10-11T02:42:31.886Z,40.97
2018-10-11T02:45:00.097Z,40.60
2018-10-11T02:47:28.414Z,37.13
2018-10-11T02:49:56.751Z,38.73
2018-10-11T02:52:24.969Z,35.03
2018-10-11T02:54:53.333Z,38.83
2018-10-11T02:57:32.755Z,37.37
2018-10-11T03:00:02.060Z,35.17
2018-10-11T03:02:30.387Z,38.30
2018-10-11T03:04:58.936Z,43.57
2018-10-11T03:07:28.019Z,45.10
2018-10-11T03:09:56.287Z,48.97
2018-10-11T03:12:24.545Z,50.97
2018-10-11T03:14:53.014Z,47.93
2018-10-11T03:17:21.267Z,40.47
2018-10-11T03:19:49.592Z,38.63
2018-10-11T03:22:17.754Z,43.50
2018-10-11T03:24:46.344Z,42.30
2018-10-11T03:27:14.625Z,43.33
2018-10-11T03:29:42.889Z,37.57
2018-10-11T03:32:11.376Z,36.27
2018-10-11T03:34:40.155Z,45.07
2018-10-11T03:37:08.199Z,43.37
2018-10-11T03:39:36.458Z,41.40
2018-10-11T03:42:04.762Z,35.67
2018-10-11T03:44:32.973Z,42.73
2018-10-11T03:47:01.325Z,39.77
2018-10-11T03:49:29.386Z,39.73
2018-10-11T03:51:57.396Z,43.80
2018-10-11T03:54:25.972Z,44.63
2018-10-11T03:56:54.850Z,47.63
2018-10-11T03:59:22.966Z,50.70
2018-10-11T04:01:51.137Z,44.10
2018-10-11T04:04:18.994Z,55.47
2018-10-11T04:06:47.010Z,50.63
2018-10-11T04:09:15.295Z,49.87
2018-10-11T04:11:43.631Z,47.33
2018-10-11T04:14:11.803Z,42.17
2018-10-11T04:16:39.761Z,42.00
2018-10-11T04:19:07.682Z,38.20
2018-10-11T04:21:36.044Z,34.77
2018-10-11T04:24:04.114Z,37.27
2018-10-11T04:26:32.274Z,36.27
2018-10-11T04:29:00.551Z,38.93
2018-10-11T04:31:28.754Z,45.60
2018-10-11T04:33:57.104Z,37.10
2018-10-11T04:36:25.315Z,35.90
2018-10-11T04:38:53.384Z,33.00
2018-10-11T04:41:21.675Z,33.53
2018-10-11T04:43:49.931Z,32.47
2018-10-11T04:46:18.159Z,36.47
2018-10-11T04:48:46.543Z,36.77
2018-10-11T04:51:14.768Z,32.67
2018-10-11T04:53:43.076Z,39.37
2018-10-11T04:56:11.375Z,35.17
2018-10-11T04:58:39.607Z,40.60
2018-10-11T05:01:07.390Z,40.08
2018-10-11T05:03:35.086Z,38.70
2018-10-11T05:06:03.122Z,35.50
2018-10-11T05:08:31.454Z,38.93
2018-10-11T05:10:59.782Z,43.00
2018-10-11T05:13:46.394Z,43.43
2018-10-11T05:16:15.227Z,36.03
2018-10-11T05:18:53.039Z,43.07
2018-10-11T05:21:21.256Z,42.13
2018-10-11T05:23:49.564Z,37.87
2018-10-11T05:26:18.093Z,37.10
2018-10-11T05:28:46.211Z,34.20
2018-10-11T05:31:14.898Z,37.23
2018-10-11T05:33:43.475Z,35.30
2018-10-11T05:36:11.743Z,40.00
2018-10-11T05:38:40.076Z,39.67
2018-10-11T05:41:07.918Z,45.53
2018-10-11T05:43:36.452Z,38.07
2018-10-11T05:46:08.660Z,37.17
2018-10-11T05:48:36.883Z,37.20
2018-10-11T05:51:05.077Z,41.70
2018-10-11T05:53:33.322Z,36.57
2018-10-11T05:56:01.593Z,41.03
2018-10-11T05:58:29.777Z,39.70
2018-10-11T06:00:57.635Z,39.90
2018-10-11T06:03:25.715Z,35.23
2018-10-11T06:05:53.541Z,32.00
2018-10-11T06:08:21.415Z,31.47
2018-10-11T06:10:49.713Z,33.13
2018-10-11T06:13:17.615Z,31.33
2018-10-11T06:15:45.481Z,32.90
2018-10-11T06:18:13.615Z,31.13
2018-10-11T06:20:41.930Z,32.97
2018-10-11T06:23:09.745Z,35.50
2018-10-11T06:25:37.591Z,31.63
2018-10-11T06:28:05.868Z,30.80
2018-10-11T06:30:34.749Z,33.63
2018-10-11T06:33:02.678Z,29.83
2018-10-11T06:35:31.028Z,30.23
2018-10-11T06:37:59.477Z,33.70
2018-10-11T06:40:27.451Z,33.30
2018-10-11T06:42:55.295Z,30.87
2018-10-11T06:45:23.189Z,30.53
2018-10-11T06:47:55.327Z,32.73
2018-10-11T06:50:23.255Z,27.23
2018-10-11T06:52:51.142Z,38.30
2018-10-11T06:55:18.962Z,34.43
2018-10-11T06:57:46.731Z,33.03
2018-10-11T07:00:14.512Z,35.13
2018-10-11T07:02:42.338Z,35.57
2018-10-11T07:05:10.103Z,38.47
2018-10-11T07:07:37.872Z,42.27
2018-10-11T07:10:05.776Z,37.03
2018-10-11T07:12:33.510Z,34.53
2018-10-11T07:15:01.235Z,32.87
2018-10-11T07:17:29.039Z,38.37
2018-10-11T07:19:56.711Z,37.27
2018-10-11T07:22:24.454Z,35.80
2018-10-11T07:24:52.259Z,37.40
2018-10-11T07:27:19.974Z,35.93
2018-10-11T07:29:47.789Z,35.60
2018-10-11T07:32:15.562Z,36.87
2018-10-11T07:34:43.348Z,37.07
2018-10-11T07:37:11.093Z,37.00
2018-10-11T07:39:38.875Z,33.73
2018-10-11T07:42:06.619Z,35.37
2018-10-11T07:44:34.353Z,28.97
2018-10-11T07:47:02.222Z,31.30
2018-10-11T07:49:29.979Z,33.33
2018-10-11T07:51:57.683Z,35.23
2018-10-11T07:54:32.050Z,32.77
2018-10-11T07:57:00.407Z,34.17
2018-10-11T07:59:28.158Z,35.67
2018-10-11T08:01:55.988Z,35.07
2018-10-11T08:04:23.772Z,31.40
2018-10-11T08:06:51.548Z,35.73
2018-10-11T08:09:19.350Z,31.73
2018-10-11T08:11:47.201Z,39.07
2018-10-11T08:14:15.564Z,32.87
2018-10-11T08:16:43.464Z,37.90
2018-10-11T08:19:11.311Z,35.23
2018-10-11T08:21:38.894Z,32.27
2018-10-11T08:24:07.275Z,33.23
2018-10-11T08:26:35.101Z,32.50
2018-10-11T08:29:02.838Z,34.60
2018-10-11T08:31:31.018Z,29.17
2018-10-11T08:33:59.450Z,32.77
2018-10-11T08:36:27.768Z,31.27
2018-10-11T08:38:55.526Z,34.10
2018-10-11T08:41:23.247Z,33.80
2018-10-11T08:43:51.103Z,38.20
2018-10-11T08:46:18.854Z,35.33
2018-10-11T08:48:46.549Z,29.87
2018-10-11T08:51:14.318Z,33.47
2018-10-11T08:53:42.195Z,32.80
2018-10-11T08:56:09.925Z,32.33
2018-10-11T08:58:37.870Z,31.30
2018-10-11T09:01:05.760Z,32.07
2018-10-11T09:03:33.815Z,27.87
2018-10-11T09:06:01.614Z,36.33
2018-10-11T09:08:29.448Z,30.73
2018-10-11T09:10:57.236Z,28.90
2018-10-11T09:13:24.943Z,32.67
2018-10-11T09:15:52.743Z,33.97
2018-10-11T09:18:20.486Z,34.07
2018-10-11T09:20:48.202Z,33.50
2018-10-11T09:23:16.038Z,29.13
2018-10-11T09:25:43.831Z,36.43
2018-10-11T09:28:11.530Z,41.20
2018-10-11T09:30:39.302Z,31.47
2018-10-11T09:33:07.045Z,31.87
2018-10-11T09:35:34.871Z,30.13
2018-10-11T09:38:02.659Z,30.10
2018-10-11T09:40:30.320Z,36.70
2018-10-11T09:42:58.112Z,30.50
2018-10-11T09:45:25.903Z,32.73
2018-10-11T09:47:53.602Z,33.47
2018-10-11T09:50:21.367Z,31.70
2018-10-11T09:52:49.150Z,34.07
2018-10-11T09:55:16.939Z,29.50
2018-10-11T09:57:44.706Z,37.93
2018-10-11T10:00:18.054Z,32.23
2018-10-11T10:02:46.908Z,34.03
2018-10-11T10:05:14.668Z,33.97
2018-10-11T10:07:42.382Z,39.73
2018-10-11T10:10:10.134Z,37.03
2018-10-11T10:12:37.847Z,34.83
2018-10-11T10:15:05.927Z,31.60
2018-10-11T10:17:35.319Z,35.37
2018-10-11T10:20:03.492Z,43.57
2018-10-11T10:22:32.035Z,38.20
2018-10-11T10:25:00.177Z,40.10
2018-10-11T10:27:28.545Z,39.87
2018-10-11T10:29:57.042Z,41.47
2018-10-11T10:32:25.417Z,44.47
2018-10-11T10:34:53.132Z,40.27
2018-10-11T10:37:20.868Z,41.90
2018-10-11T10:39:48.623Z,36.87
2018-10-11T10:42:16.297Z,43.23
2018-10-11T10:44:44.168Z,43.53
2018-10-11T10:47:11.883Z,36.33
2018-10-11T10:49:39.651Z,49.53
2018-10-11T10:52:07.461Z,41.07
2018-10-11T10:54:35.874Z,40.03
2018-10-11T10:57:04.572Z,39.97
2018-10-11T10:59:32.775Z,48.83
2018-10-11T11:02:01.041Z,53.27
2018-10-11T11:04:29.299Z,45.90
2018-10-11T11:06:57.667Z,55.77
2018-10-11T11:09:25.885Z,43.10
2018-10-11T11:11:54.223Z,58.17
2018-10-11T11:14:22.448Z,52.57
2018-10-11T11:16:50.994Z,49.03
2018-10-11T11:19:19.183Z,53.30
2018-10-11T11:21:47.693Z,44.80
2018-10-11T11:24:15.942Z,51.13
2018-10-11T11:26:44.400Z,45.53
2018-10-11T11:29:12.498Z,48.03
2018-10-11T11:31:40.762Z,53.43
2018-10-11T11:34:09.236Z,42.70
2018-10-11T11:36:37.560Z,49.20
2018-10-11T11:39:07.683Z,45.20
2018-10-11T11:41:35.839Z,43.70
2018-10-11T11:44:04.291Z,33.70
2018-10-11T11:46:32.499Z,48.37
2018-10-11T11:49:00.932Z,45.17
2018-10-11T11:51:29.317Z,34.17
2018-10-11T11:53:57.677Z,35.83
2018-10-11T11:56:26.052Z,31.57
2018-10-11T11:58:54.496Z,35.80
2018-10-11T12:01:22.319Z,32.67
2018-10-11T12:03:50.090Z,31.33
2018-10-11T12:06:17.834Z,37.80
2018-10-11T12:08:45.565Z,32.67
2018-10-11T12:11:13.324Z,33.50
2018-10-11T12:13:41.155Z,35.33
2018-10-11T12:16:08.876Z,32.57
2018-10-11T12:18:36.615Z,33.67
2018-10-11T12:21:04.536Z,32.20
2018-10-11T12:23:32.290Z,29.60
2018-10-11T12:26:00.040Z,35.70
2018-10-11T12:28:27.888Z,39.27
2018-10-11T12:30:55.679Z,33.87
2018-10-11T12:33:23.488Z,34.33
2018-10-11T12:35:51.243Z,30.83
2018-10-11T12:38:19.428Z,37.23
2018-10-11T12:40:47.781Z,33.20
2018-10-11T12:43:16.102Z,33.13
2018-10-11T12:45:43.843Z,34.50
2018-10-11T12:48:11.612Z,30.33
2018-10-11T12:50:39.496Z,34.37
2018-10-11T12:53:07.652Z,36.27
2018-10-11T12:55:35.421Z,34.73
2018-10-11T12:58:03.200Z,33.43
2018-10-11T13:00:30.895Z,28.97
2018-10-11T13:02:58.840Z,35.83
2018-10-11T13:05:26.492Z,41.37
2018-10-11T13:07:54.306Z,36.13
2018-10-11T13:10:22.052Z,37.23
2018-10-11T13:12:49.816Z,44.70
2018-10-11T13:15:17.558Z,43.93
2018-10-11T13:17:45.331Z,41.03
2018-10-11T13:20:13.123Z,44.33
2018-10-11T13:22:40.804Z,43.27
2018-10-11T13:25:08.611Z,32.13
2018-10-11T13:27:36.394Z,38.27
2018-10-11T13:30:04.281Z,43.30
2018-10-11T13:32:32.092Z,36.03
2018-10-11T13:34:59.935Z,40.67
2018-10-11T13:37:27.703Z,37.00
2018-10-11T13:39:57.691Z,42.90
2018-10-11T13:42:23.279Z,57.00
2018-10-11T13:44:51.023Z,40.03
2018-10-11T13:47:18.802Z,58.17
2018-10-11T13:49:46.676Z,37.33
2018-10-11T13:52:17.051Z,39.97
2018-10-11T13:54:42.225Z,41.37
2018-10-11T13:57:10.044Z,39.53
2018-10-11T13:59:37.822Z,41.80
2018-10-11T14:02:05.607Z,43.37
2018-10-11T14:04:33.507Z,42.80
2018-10-11T14:07:01.272Z,74.40
2018-10-11T14:09:29.099Z,45.97
2018-10-11T14:11:56.867Z,44.10
2018-10-11T14:14:24.542Z,44.03
2018-10-11T14:16:52.267Z,44.53
2018-10-11T14:19:20.052Z,41.27
2018-10-11T14:21:47.763Z,42.63
2018-10-11T14:24:15.618Z,50.90
2018-10-11T14:26:43.416Z,42.43
2018-10-11T14:29:11.131Z,62.93
2018-10-11T14:31:38.923Z,125.83
2018-10-11T14:34:06.943Z,91.93
2018-10-11T14:36:34.794Z,49.60
2018-10-11T14:39:02.602Z,69.93
2018-10-11T14:41:30.391Z,56.27
2018-10-11T14:43:58.148Z,54.00
2018-10-11T14:46:25.920Z,47.97
2018-10-11T14:48:53.736Z,44.33
2018-10-11T14:51:21.544Z,47.17
2018-10-11T14:53:52.780Z,46.63
2018-10-11T14:56:17.036Z,49.17
2018-10-11T14:58:44.859Z,42.60
2018-10-11T15:01:12.654Z,52.47
2018-10-11T15:03:40.416Z,55.03
2018-10-11T15:06:08.262Z,51.23
2018-10-11T15:08:36.107Z,54.17
2018-10-11T15:11:03.901Z,47.57
2018-10-11T15:13:31.626Z,47.70
2018-10-11T15:15:59.462Z,54.77
2018-10-11T15:18:27.213Z,56.07
2018-10-11T15:20:54.983Z,54.23
2018-10-11T15:23:22.747Z,52.47
2018-10-11T15:25:50.569Z,56.17
2018-10-11T15:28:18.323Z,47.67
2018-10-11T15:30:46.056Z,50.47
2018-10-11T15:33:13.812Z,55.97
2018-10-11T15:35:41.651Z,52.07
2018-10-11T15:38:09.360Z,55.87
2018-10-11T15:40:37.211Z,58.97
2018-10-11T15:43:05.052Z,55.93
2018-10-11T15:45:32.775Z,53.73
2018-10-11T15:48:00.568Z,55.37
2018-10-11T15:50:28.319Z,57.63
2018-10-11T15:52:56.138Z,57.93
2018-10-11T15:55:23.947Z,53.13
2018-10-11T15:57:51.764Z,55.03
2018-10-11T16:00:19.564Z,58.40
2018-10-11T16:02:47.366Z,52.77
2018-10-11T16:05:15.107Z,49.83
2018-10-11T16:07:42.935Z,54.53
2018-10-11T16:10:10.699Z,49.93
2018-10-11T16:12:38.470Z,53.80
2018-10-11T16:15:06.324Z,53.47
2018-10-11T16:17:34.192Z,48.00
2018-10-11T16:20:02.032Z,49.60
2018-10-11T16:22:29.764Z,55.77
2018-10-11T16:24:57.547Z,53.10
2018-10-11T16:27:25.537Z,55.77
2018-10-11T16:29:53.327Z,57.73
2018-10-11T16:32:21.181Z,65.47
2018-10-11T16:34:48.870Z,62.77
2018-10-11T16:37:16.606Z,59.27
2018-10-11T16:39:44.427Z,73.53
2018-10-11T16:42:12.150Z,73.33
2018-10-11T16:44:39.843Z,68.53
2018-10-11T16:47:07.647Z,62.30
2018-10-11T16:49:35.428Z,86.97
2018-10-11T16:52:03.212Z,70.27
2018-10-11T16:54:30.944Z,54.20
2018-10-11T16:56:58.666Z,57.70
2018-10-11T16:59:26.456Z,62.73
2018-10-11T17:01:54.904Z,62.87
2018-10-11T17:04:23.176Z,56.97
2018-10-11T17:06:51.621Z,52.97
2018-10-11T17:09:19.675Z,46.20
2018-10-11T17:11:48.052Z,44.37
2018-10-11T17:14:16.631Z,50.17
2018-10-11T17:16:44.643Z,54.63
2018-10-11T17:19:12.702Z,61.40
2018-10-11T17:21:41.192Z,63.77
2018-10-11T17:24:09.476Z,67.47
2018-10-11T17:26:37.707Z,117.77
2018-10-11T17:29:06.083Z,91.63
2018-10-11T17:31:34.550Z,88.67
2018-10-11T17:34:03.028Z,82.43
2018-10-11T17:36:31.496Z,84.23
2018-10-11T17:38:59.961Z,110.87
2018-10-11T17:41:28.390Z,80.77
2018-10-11T17:43:56.871Z,73.50
2018-10-11T17:46:25.376Z,85.33
2018-10-11T17:48:53.592Z,99.33
2018-10-11T17:51:21.813Z,97.97
2018-10-11T17:53:49.615Z,86.07
2018-10-11T17:56:17.367Z,88.83
2018-10-11T17:58:45.136Z,97.60
2018-10-11T18:01:12.979Z,74.13
2018-10-11T18:03:40.788Z,79.10
2018-10-11T18:06:08.549Z,74.37
2018-10-11T18:08:36.612Z,78.37
2018-10-11T18:11:11.483Z,78.80
2018-10-11T18:13:39.559Z,75.10
2018-10-11T18:16:07.300Z,92.40
2018-10-11T18:18:35.501Z,179.73
2018-10-11T18:21:03.823Z,103.87
2018-10-11T18:23:32.060Z,89.23
2018-10-11T18:26:00.308Z,89.10
2018-10-11T18:28:28.852Z,91.30
2018-10-11T18:30:57.046Z,106.07
2018-10-11T18:33:25.511Z,140.13
2018-10-11T18:35:53.754Z,88.90
2018-10-11T18:38:22.104Z,85.00
2018-10-11T18:40:50.340Z,84.83
2018-10-11T18:43:18.685Z,88.20
2018-10-11T18:45:46.448Z,84.07
2018-10-11T18:48:14.167Z,97.40
2018-10-11T18:50:41.966Z,125.67
2018-10-11T18:53:09.716Z,103.57
2018-10-11T18:55:37.455Z,104.13
2018-10-11T18:58:05.235Z,94.80
2018-10-11T19:00:32.935Z,85.10
2018-10-11T19:03:00.663Z,98.53
2018-10-11T19:05:28.843Z,100.57
2018-10-11T19:07:57.080Z,96.53
2018-10-11T19:10:25.406Z,235.70
2018-10-11T19:12:53.674Z,199.77
2018-10-11T19:15:22.022Z,101.40
2018-10-11T19:17:50.420Z,85.30
2018-10-11T19:20:18.556Z,90.33
2018-10-11T19:22:46.730Z,90.13
2018-10-11T19:25:15.028Z,88.40
2018-10-11T19:27:43.203Z,110.23
2018-10-11T19:30:11.567Z,100.37
2018-10-11T19:32:39.416Z,97.70
2018-10-11T19:35:07.607Z,89.53
2018-10-11T19:37:36.009Z,87.40
2018-10-11T19:40:04.272Z,92.70
2018-10-11T19:42:32.815Z,80.27
2018-10-11T19:45:01.230Z,87.23
2018-10-11T19:47:29.526Z,81.43
2018-10-11T19:49:57.851Z,81.30
2018-10-11T19:52:26.077Z,87.30
2018-10-11T19:54:54.588Z,95.93
2018-10-11T19:57:22.911Z,94.83
2018-10-11T19:59:51.327Z,85.23
2018-10-11T20:02:19.567Z,88.07
2018-10-11T20:04:47.527Z,116.63
2018-10-11T20:07:15.307Z,102.33
2018-10-11T20:09:43.579Z,94.83
2018-10-11T20:12:11.499Z,98.43
2018-10-11T20:14:39.908Z,93.20
2018-10-11T20:17:08.107Z,86.17
2018-10-11T20:19:36.368Z,87.17
2018-10-11T20:22:04.552Z,96.53
2018-10-11T20:24:32.308Z,97.43
2018-10-11T20:27:00.497Z,84.70
2018-10-11T20:29:28.782Z,71.43
2018-10-11T20:31:57.263Z,80.77
2018-10-11T20:34:25.575Z,86.70
2018-10-11T20:36:53.294Z,98.03
2018-10-11T20:39:21.100Z,91.60
2018-10-11T20:41:48.947Z,82.80
2018-10-11T20:44:16.655Z,65.93
2018-10-11T20:46:44.331Z,67.37
2018-10-11T20:49:12.427Z,64.47
2018-10-11T20:51:40.467Z,72.93
2018-10-11T20:54:08.867Z,63.00
2018-10-11T20:56:37.399Z,64.03
2018-10-11T20:59:06.148Z,64.97
2018-10-11T21:01:34.619Z,69.60
2018-10-11T21:04:03.089Z,67.83
2018-10-11T21:06:31.382Z,74.37
2018-10-11T21:08:59.683Z,70.50
2018-10-11T21:11:28.155Z,67.53
2018-10-11T21:13:56.715Z,60.10
2018-10-11T21:16:24.644Z,67.47
2018-10-11T21:18:53.177Z,62.33
2018-10-11T21:21:21.439Z,65.67
2018-10-11T21:23:49.904Z,60.80
2018-10-11T21:26:18.143Z,71.03
2018-10-11T21:28:46.661Z,73.77
2018-10-11T21:31:15.121Z,67.20
2018-10-11T21:33:43.485Z,72.33
2018-10-11T21:36:11.887Z,62.20
2018-10-11T21:38:40.196Z,64.93
2018-10-11T21:41:08.193Z,62.37
2018-10-11T21:43:36.732Z,73.07
2018-10-11T21:46:05.011Z,69.73
2018-10-11T21:48:33.578Z,73.17
2018-10-11T21:51:02.144Z,78.33
2018-10-11T21:53:30.541Z,77.10
2018-10-11T21:55:59.020Z,76.67
2018-10-11T21:58:27.444Z,67.40
2018-10-11T22:01:01.343Z,68.63
2018-10-11T22:03:29.768Z,70.67
2018-10-11T22:05:58.144Z,69.60
2018-10-11T22:08:26.417Z,65.17
2018-10-11T22:10:54.942Z,62.30
2018-10-11T22:13:23.354Z,57.17
2018-10-11T22:15:51.536Z,67.03
2018-10-11T22:18:19.877Z,61.93
2018-10-11T22:20:48.083Z,93.67
2018-10-11T22:23:15.907Z,79.30
2018-10-11T22:25:43.681Z,82.57
2018-10-11T22:28:11.536Z,86.20
2018-10-11T22:30:39.482Z,84.27
2018-10-11T22:33:07.411Z,61.13
2018-10-11T22:35:35.173Z,61.37
2018-10-11T22:38:03.082Z,73.63
2018-10-11T22:40:31.090Z,82.57
2018-10-11T22:42:58.887Z,75.50
2018-10-11T22:45:27.210Z,74.93
2018-10-11T22:47:55.986Z,82.50
2018-10-11T22:50:24.911Z,75.80
2018-10-11T22:52:52.743Z,72.83
2018-10-11T22:55:20.562Z,61.63
2018-10-11T22:57:48.428Z,69.20
2018-10-11T23:00:16.324Z,64.53
2018-10-11T23:02:44.059Z,63.67
2018-10-11T23:05:11.842Z,60.57
2018-10-11T23:07:39.663Z,72.40
2018-10-11T23:10:07.526Z,61.90
2018-10-11T23:12:35.259Z,66.77
2018-10-11T23:15:03.620Z,72.53
2018-10-11T23:17:31.937Z,69.00
2018-10-11T23:20:00.261Z,68.83
2018-10-11T23:22:28.539Z,65.77
2018-10-11T23:24:56.761Z,71.67
2018-10-11T23:27:24.528Z,72.27
2018-10-11T23:29:52.335Z,71.33
2018-10-11T23:32:20.098Z,71.07
2018-10-11T23:34:47.871Z,70.33
2018-10-11T23:37:15.706Z,70.77
2018-10-11T23:39:43.467Z,70.30
2018-10-11T23:42:11.244Z,65.13
2018-10-11T23:44:38.988Z,66.67
2018-10-11T23:47:06.908Z,71.40
2018-10-11T23:49:34.833Z,80.27
2018-10-11T23:52:02.783Z,74.27
2018-10-11T23:54:30.651Z,77.87
2018-10-11T23:56:58.502Z,78.47
2018-10-11T23:59:26.423Z,77.90
